createdAt,value
2018-05-31T00:02:26.735Z,29.70
2018-05-31T00:04:55.195Z,25.33
2018-05-31T00:07:24.110Z,33.10
2018-05-31T00:09:53.674Z,26.87
2018-05-31T00:12:22.199Z,29.27
2018-05-31T00:14:50.800Z,29.43
2018-05-31T00:17:18.713Z,28.13
2018-05-31T00:19:47.043Z,29.27
2018-05-31T00:22:15.477Z,39.13
2018-05-31T00:24:43.341Z,27.57
2018-05-31T00:27:11.783Z,35.40
2018-05-31T00:29:40.329Z,34.30
2018-05-31T00:32:08.026Z,39.77
2018-05-31T00:34:36.602Z,38.33
2018-05-31T00:37:06.553Z,43.47
2018-05-31T00:39:36.368Z,39.53
2018-05-31T00:42:06.107Z,44.97
2018-05-31T00:44:33.821Z,43.37
2018-05-31T00:47:03.124Z,45.73
2018-05-31T00:49:32.081Z,47.07
2018-05-31T00:52:00.276Z,48.83
2018-05-31T00:54:29.061Z,56.77
2018-05-31T00:56:58.548Z,44.27
2018-05-31T00:59:27.058Z,42.97
2018-05-31T01:01:55.704Z,50.60
2018-05-31T01:04:24.445Z,42.03
2018-05-31T01:06:53.413Z,48.50
2018-05-31T01:09:21.163Z,46.53
2018-05-31T01:11:49.223Z,41.20
2018-05-31T01:14:17.869Z,41.33
2018-05-31T01:16:46.726Z,42.73
2018-05-31T01:19:14.911Z,45.17
2018-05-31T01:21:44.070Z,48.97
2018-05-31T01:24:11.747Z,44.97
2018-05-31T01:26:39.792Z,42.33
2018-05-31T01:29:08.512Z,41.87
2018-05-31T01:31:39.784Z,42.37
2018-05-31T01:34:08.619Z,46.30
2018-05-31T01:36:38.863Z,47.33
2018-05-31T01:39:08.642Z,50.97
2018-05-31T01:41:37.669Z,46.00
2018-05-31T01:44:05.673Z,47.43
2018-05-31T01:46:34.238Z,40.50
2018-05-31T01:49:03.126Z,52.57
2018-05-31T01:51:31.809Z,52.53
2018-05-31T01:53:59.806Z,55.83
2018-05-31T01:56:28.206Z,56.23
2018-05-31T01:58:56.898Z,51.47
2018-05-31T02:01:25.439Z,48.43
2018-05-31T02:03:54.445Z,53.73
2018-05-31T02:06:23.029Z,46.70
2018-05-31T02:08:51.801Z,55.90
2018-05-31T02:11:20.494Z,55.23
2018-05-31T02:13:48.301Z,54.43
2018-05-31T02:16:17.930Z,56.93
2018-05-31T02:18:47.009Z,51.17
2018-05-31T02:21:16.350Z,52.23
2018-05-31T02:23:44.146Z,58.83
2018-05-31T02:26:12.594Z,53.73
2018-05-31T02:28:41.084Z,49.17
2018-05-31T02:31:09.664Z,46.40
2018-05-31T02:33:38.026Z,50.40
2018-05-31T02:36:07.249Z,49.70
2018-05-31T02:38:37.087Z,42.33
2018-05-31T02:41:05.599Z,51.40
2018-05-31T02:43:33.231Z,43.27
2018-05-31T02:46:01.638Z,41.47
2018-05-31T02:48:29.452Z,49.60
2018-05-31T02:50:59.000Z,42.73
2018-05-31T02:53:29.350Z,39.80
2018-05-31T02:55:59.385Z,38.73
2018-05-31T02:58:27.551Z,41.77
2018-05-31T03:00:56.055Z,38.50
2018-05-31T03:03:23.829Z,35.07
2018-05-31T03:05:51.619Z,41.03
2018-05-31T03:08:19.421Z,45.00
2018-05-31T03:10:47.080Z,63.47
2018-05-31T03:13:14.877Z,50.10
2018-05-31T03:15:42.611Z,43.57
2018-05-31T03:18:11.139Z,45.13
2018-05-31T03:20:39.677Z,47.53
2018-05-31T03:23:07.397Z,43.43
2018-05-31T03:25:35.081Z,46.17
2018-05-31T03:28:02.992Z,50.37
2018-05-31T03:30:30.730Z,43.53
2018-05-31T03:32:58.394Z,41.43
2018-05-31T03:35:26.223Z,45.40
2018-05-31T03:37:55.435Z,38.70
2018-05-31T03:40:23.952Z,35.90
2018-05-31T03:42:51.631Z,30.27
2018-05-31T03:45:19.353Z,26.33
2018-05-31T03:47:47.057Z,16.70
2018-05-31T03:50:14.767Z,17.13
2018-05-31T03:52:42.457Z,10.87
2018-05-31T03:55:10.161Z,12.23
2018-05-31T03:57:39.514Z,7.23
2018-05-31T04:00:07.374Z,7.40
2018-05-31T04:02:35.141Z,5.67
2018-05-31T04:05:02.821Z,6.23
2018-05-31T04:07:30.611Z,4.90
2018-05-31T04:09:58.309Z,6.27
2018-05-31T04:12:26.045Z,3.73
2018-05-31T04:14:53.710Z,4.63
2018-05-31T04:17:22.242Z,4.70
2018-05-31T04:19:50.013Z,4.10
2018-05-31T04:22:17.831Z,6.63
2018-05-31T04:24:46.197Z,4.03
2018-05-31T04:27:13.881Z,3.23
2018-05-31T04:29:41.612Z,6.57
2018-05-31T04:32:09.373Z,4.40
2018-05-31T04:34:37.858Z,3.80
2018-05-31T04:37:06.396Z,4.03
2018-05-31T04:39:34.205Z,7.97
2018-05-31T04:42:01.904Z,3.60
2018-05-31T04:44:30.450Z,6.13
2018-05-31T04:46:58.159Z,3.73
2018-05-31T04:49:25.931Z,4.00
2018-05-31T04:51:53.639Z,4.63
2018-05-31T04:54:21.317Z,4.10
2018-05-31T04:56:49.781Z,4.53
2018-05-31T04:59:17.448Z,4.63
2018-05-31T05:01:45.909Z,4.07
2018-05-31T05:04:13.599Z,5.47
2018-05-31T05:06:41.335Z,4.00
2018-05-31T05:09:09.150Z,4.90
2018-05-31T05:11:37.648Z,6.90
2018-05-31T05:14:06.125Z,3.60
2018-05-31T05:16:33.915Z,3.87
2018-05-31T05:19:01.645Z,6.97
2018-05-31T05:21:30.033Z,3.63
2018-05-31T05:23:58.843Z,4.30
2018-05-31T05:26:27.609Z,4.30
2018-05-31T05:28:59.283Z,3.50
2018-05-31T05:31:27.825Z,5.60
2018-05-31T05:33:56.317Z,6.53
2018-05-31T05:36:24.841Z,3.80
2018-05-31T05:38:53.561Z,4.17
2018-05-31T05:41:21.361Z,6.23
2018-05-31T05:43:49.061Z,3.93
2018-05-31T05:46:16.976Z,4.15
2018-05-31T05:48:44.704Z,6.60
2018-05-31T05:51:12.355Z,3.80
2018-05-31T05:53:41.023Z,4.27
2018-05-31T05:56:09.556Z,8.93
2018-05-31T05:58:37.941Z,6.50
2018-05-31T06:01:07.460Z,5.67
2018-05-31T06:03:36.262Z,5.27
2018-05-31T06:06:05.841Z,7.03
2018-05-31T06:08:34.290Z,9.23
2018-05-31T06:11:03.126Z,6.67
2018-05-31T06:13:31.699Z,6.50
2018-05-31T06:15:59.398Z,19.87
2018-05-31T06:18:28.537Z,9.73
2018-05-31T06:20:56.735Z,6.43
2018-05-31T06:23:24.480Z,11.57
2018-05-31T06:25:52.200Z,7.00
2018-05-31T06:28:20.603Z,6.13
2018-05-31T06:30:48.288Z,5.17
2018-05-31T06:33:16.122Z,4.47
2018-05-31T06:35:43.751Z,7.53
2018-05-31T06:38:11.500Z,6.27
2018-05-31T06:40:39.193Z,3.53
2018-05-31T06:43:06.888Z,3.63
2018-05-31T06:45:35.756Z,6.40
2018-05-31T06:48:08.894Z,3.87
2018-05-31T06:50:37.389Z,4.33
2018-05-31T06:53:05.842Z,5.67
2018-05-31T06:55:34.399Z,5.67
2018-05-31T06:58:02.862Z,5.50
2018-05-31T07:00:31.321Z,6.27
2018-05-31T07:02:58.854Z,7.40
2018-05-31T07:05:26.596Z,6.27
2018-05-31T07:07:56.792Z,4.47
2018-05-31T07:10:25.097Z,6.00
2018-05-31T07:12:52.658Z,3.30
2018-05-31T07:15:20.289Z,9.53
2018-05-31T07:17:47.973Z,7.33
2018-05-31T07:20:16.174Z,3.70
2018-05-31T07:22:43.729Z,5.33
2018-05-31T07:25:11.706Z,8.53
2018-05-31T07:27:40.232Z,5.53
2018-05-31T07:30:08.360Z,9.30
2018-05-31T07:32:35.905Z,6.53
2018-05-31T07:35:03.748Z,9.10
2018-05-31T07:37:32.114Z,5.93
2018-05-31T07:39:59.668Z,4.03
2018-05-31T07:42:27.306Z,4.63
2018-05-31T07:44:54.866Z,4.47
2018-05-31T07:47:22.390Z,4.60
2018-05-31T07:49:49.912Z,5.00
2018-05-31T07:52:17.489Z,7.70
2018-05-31T07:54:45.810Z,7.00
2018-05-31T07:57:13.482Z,5.60
2018-05-31T07:59:41.060Z,6.80
2018-05-31T08:02:08.782Z,4.43
2018-05-31T08:04:36.386Z,7.70
2018-05-31T08:07:03.997Z,6.57
2018-05-31T08:09:31.634Z,7.67
2018-05-31T08:11:59.934Z,10.30
2018-05-31T08:14:27.492Z,11.70
2018-05-31T08:16:55.243Z,9.47
2018-05-31T08:19:23.543Z,7.97
2018-05-31T08:21:51.130Z,5.87
2018-05-31T08:24:18.727Z,5.50
2018-05-31T08:26:47.235Z,6.87
2018-05-31T08:29:14.870Z,6.05
2018-05-31T08:31:43.325Z,11.47
2018-05-31T08:34:10.847Z,6.10
2018-05-31T08:36:38.432Z,8.83
2018-05-31T08:39:06.036Z,5.63
2018-05-31T08:41:34.338Z,5.50
2018-05-31T08:44:01.952Z,6.17
2018-05-31T08:46:29.610Z,5.67
2018-05-31T08:48:57.288Z,4.97
2018-05-31T08:51:24.957Z,4.77
2018-05-31T08:53:53.301Z,6.10
2018-05-31T08:56:20.935Z,6.60
2018-05-31T08:58:48.464Z,9.33
2018-05-31T09:01:16.778Z,4.83
2018-05-31T09:03:45.203Z,4.80
2018-05-31T09:06:12.721Z,5.13
2018-05-31T09:08:40.315Z,6.40
2018-05-31T09:11:07.888Z,9.37
2018-05-31T09:13:36.189Z,7.20
2018-05-31T09:16:05.022Z,9.13
2018-05-31T09:18:32.660Z,6.03
2018-05-31T09:21:00.286Z,6.40
2018-05-31T09:23:28.758Z,5.43
2018-05-31T09:25:56.673Z,7.90
2018-05-31T09:28:25.806Z,10.43
2018-05-31T09:30:53.640Z,6.13
2018-05-31T09:33:21.520Z,10.00
2018-05-31T09:35:49.083Z,8.27
2018-05-31T09:38:16.991Z,9.40
2018-05-31T09:40:46.810Z,9.13
2018-05-31T09:45:42.319Z,7.20
2018-05-31T09:48:10.020Z,4.80
2018-05-31T10:00:34.629Z,6.10
2018-05-31T10:08:00.466Z,10.50
2018-05-31T10:10:28.161Z,7.10
2018-05-31T10:12:55.841Z,3.87
2018-05-31T10:15:24.198Z,3.37
2018-05-31T10:17:51.768Z,3.83
2018-05-31T10:20:20.092Z,5.43
2018-05-31T10:22:47.725Z,6.70
2018-05-31T10:25:15.269Z,6.60
2018-05-31T10:27:45.485Z,4.43
2018-05-31T10:30:13.137Z,4.60
2018-05-31T10:32:40.756Z,5.50
2018-05-31T10:35:09.526Z,7.50
2018-05-31T10:37:37.207Z,8.50
2018-05-31T10:40:05.486Z,6.73
2018-05-31T10:42:33.097Z,4.03
2018-05-31T10:45:03.852Z,5.07
2018-05-31T10:47:32.387Z,3.97
2018-05-31T10:50:00.139Z,4.33
2018-05-31T10:52:27.783Z,3.90
2018-05-31T10:54:56.169Z,7.17
2018-05-31T10:57:23.752Z,4.80
2018-05-31T10:59:51.449Z,3.87
2018-05-31T11:02:19.910Z,5.30
2018-05-31T11:04:48.677Z,3.60
2018-05-31T11:07:16.248Z,9.00
2018-05-31T11:14:38.478Z,6.10
2018-05-31T11:17:06.364Z,3.83
2018-05-31T11:19:33.957Z,7.15
2018-05-31T11:24:30.065Z,3.13
2018-05-31T11:26:57.688Z,4.67
2018-05-31T11:29:26.968Z,4.03
2018-05-31T11:36:49.449Z,2.00
2018-05-31T11:39:18.029Z,3.57
2018-05-31T11:49:09.709Z,3.67
2018-05-31T11:54:05.178Z,2.50
2018-05-31T12:03:54.092Z,5.45
2018-05-31T12:06:21.615Z,2.30
2018-05-31T12:13:44.913Z,2.50
2018-05-31T12:16:13.366Z,4.80
2018-05-31T12:26:04.036Z,3.40
2018-05-31T12:28:32.332Z,2.53
2018-05-31T12:33:27.196Z,3.83
2018-05-31T12:38:22.025Z,3.90
2018-05-31T12:48:14.197Z,2.17
2018-05-31T13:05:35.255Z,3.90
2018-05-31T13:27:57.499Z,3.17
2018-05-31T13:30:25.813Z,4.20
2018-05-31T13:32:55.036Z,11.53
2018-05-31T13:40:16.735Z,5.27
2018-05-31T13:42:45.028Z,8.57
2018-05-31T13:45:13.375Z,5.53
2018-05-31T13:47:40.929Z,8.27
2018-05-31T13:50:08.464Z,8.80
2018-05-31T13:52:37.184Z,7.27
2018-05-31T13:57:31.933Z,5.85
2018-05-31T14:07:22.408Z,4.67
2018-05-31T14:09:50.157Z,4.45
2018-05-31T14:12:17.769Z,3.95
2018-05-31T14:17:12.599Z,6.23
2018-05-31T14:59:05.769Z,4.20
2018-05-31T15:13:51.933Z,3.90
2018-05-31T15:16:20.417Z,3.27
2018-05-31T15:18:48.681Z,3.53
2018-05-31T15:21:16.822Z,2.53
2018-05-31T15:23:44.974Z,4.97
2018-05-31T15:26:12.904Z,3.85
2018-05-31T15:36:04.636Z,3.00
2018-05-31T15:38:32.459Z,4.00
2018-05-31T15:41:00.711Z,3.57
2018-05-31T15:48:23.822Z,3.30
2018-05-31T15:50:51.424Z,4.60
2018-05-31T15:55:47.337Z,8.50
2018-05-31T15:58:15.501Z,6.43
2018-05-31T16:00:45.282Z,7.50
2018-05-31T16:03:13.682Z,3.00
2018-05-31T16:13:04.821Z,5.10
2018-05-31T16:15:32.851Z,4.27
2018-05-31T16:18:02.654Z,3.73
2018-05-31T16:35:17.599Z,6.03
2018-05-31T16:37:45.798Z,4.30
2018-05-31T16:40:15.456Z,3.23
2018-05-31T16:42:44.701Z,3.07
2018-05-31T16:45:12.508Z,8.23
2018-05-31T16:47:41.395Z,7.33
2018-05-31T16:50:09.734Z,4.10
2018-05-31T16:52:40.717Z,8.87
2018-05-31T16:55:09.288Z,5.00
2018-05-31T16:57:39.519Z,5.87
2018-05-31T17:00:07.280Z,4.27
2018-05-31T17:02:34.955Z,7.33
2018-05-31T17:05:03.299Z,5.47
2018-05-31T17:07:31.200Z,3.50
2018-05-31T17:10:03.615Z,4.80
2018-05-31T17:12:31.452Z,5.45
2018-05-31T17:15:07.831Z,7.55
2018-05-31T17:27:50.165Z,6.15
2018-05-31T17:32:53.810Z,7.63
2018-05-31T17:35:44.653Z,3.90
2018-05-31T17:38:17.274Z,5.63
2018-05-31T17:40:45.492Z,4.50
2018-05-31T17:43:14.216Z,6.43
2018-05-31T17:45:43.978Z,6.73
2018-05-31T17:48:13.701Z,18.33
2018-05-31T17:50:41.945Z,4.90
2018-05-31T17:53:13.714Z,11.93
2018-05-31T17:55:46.390Z,6.90
2018-05-31T17:58:14.701Z,3.67
2018-05-31T18:00:43.685Z,5.30
2018-05-31T18:03:11.922Z,5.73
2018-05-31T18:05:40.469Z,5.40
2018-05-31T18:08:11.754Z,2.80
2018-05-31T18:13:08.042Z,4.75
2018-05-31T18:15:42.549Z,3.50
2018-05-31T18:18:10.499Z,4.60
2018-05-31T18:20:43.800Z,6.33
2018-05-31T18:23:17.514Z,5.77
2018-05-31T18:25:45.390Z,7.80
2018-05-31T18:28:30.776Z,5.00
2018-05-31T18:30:59.328Z,7.20
2018-05-31T18:33:35.082Z,3.93
2018-05-31T18:36:03.059Z,4.27
2018-05-31T18:38:31.267Z,9.80
2018-05-31T18:41:00.468Z,4.20
2018-05-31T18:43:29.440Z,15.27
2018-05-31T18:45:57.290Z,7.50
2018-05-31T18:48:33.855Z,4.50
2018-05-31T18:51:09.858Z,5.73
2018-05-31T18:53:58.563Z,7.40
2018-05-31T18:56:51.110Z,12.90
2018-05-31T18:59:23.524Z,10.00
2018-05-31T19:02:00.347Z,6.10
2018-05-31T19:04:33.343Z,4.80
2018-05-31T19:07:07.688Z,4.77
2018-05-31T19:09:40.024Z,8.27
2018-05-31T19:12:12.567Z,3.87
2018-05-31T19:14:44.705Z,10.35
2018-05-31T19:17:19.432Z,6.87
2018-05-31T19:20:02.099Z,3.80
2018-05-31T19:22:34.448Z,4.40
2018-05-31T19:25:09.003Z,9.10
2018-05-31T19:27:40.200Z,4.37
2018-05-31T19:30:22.006Z,4.30
2018-05-31T19:32:54.564Z,7.30
2018-05-31T19:35:30.286Z,7.15
2018-05-31T19:38:02.277Z,4.85
2018-05-31T19:40:33.057Z,3.70
2018-05-31T19:45:52.731Z,7.90
2018-05-31T19:48:23.755Z,3.50
2018-05-31T19:50:54.376Z,4.60
2018-05-31T19:53:32.117Z,7.30
2018-05-31T19:56:01.606Z,4.30
2018-05-31T19:58:36.288Z,4.50
2018-05-31T20:01:09.950Z,4.07
2018-05-31T20:03:43.321Z,11.40
2018-05-31T20:06:11.582Z,6.00
2018-05-31T20:08:40.271Z,4.63
2018-05-31T20:11:08.577Z,3.33
2018-05-31T20:13:38.091Z,6.57
2018-05-31T20:16:06.913Z,3.33
2018-05-31T20:18:34.845Z,4.20
2018-05-31T20:21:03.549Z,4.40
2018-05-31T20:23:31.526Z,5.27
2018-05-31T20:26:00.197Z,4.70
2018-05-31T20:28:28.707Z,5.60
2018-05-31T20:30:57.654Z,6.40
2018-05-31T20:33:25.524Z,4.20
2018-05-31T20:35:53.450Z,6.30
2018-05-31T20:38:21.066Z,4.07
2018-05-31T20:40:48.838Z,5.23
2018-05-31T20:43:17.486Z,6.60
2018-05-31T20:45:45.245Z,9.83
2018-05-31T20:48:14.323Z,4.60
2018-05-31T20:50:44.391Z,7.03
2018-05-31T20:53:12.437Z,10.20
2018-05-31T20:55:41.132Z,5.30
2018-05-31T20:58:09.425Z,15.07
2018-05-31T21:00:37.178Z,9.90
2018-05-31T21:03:06.006Z,5.20
2018-05-31T21:05:35.799Z,5.80
2018-05-31T21:08:04.816Z,6.27
2018-05-31T21:10:32.654Z,7.90
2018-05-31T21:13:01.676Z,6.07
2018-05-31T21:15:31.240Z,6.40
2018-05-31T21:18:00.840Z,7.00
2018-05-31T21:20:29.039Z,10.10
2018-05-31T21:22:56.718Z,9.70
2018-05-31T21:25:25.199Z,10.73
2018-05-31T21:27:53.569Z,9.73
2018-05-31T21:30:21.472Z,7.93
2018-05-31T21:32:49.583Z,5.30
2018-05-31T21:35:17.282Z,7.93
2018-05-31T21:37:44.935Z,5.47
2018-05-31T21:40:12.941Z,7.37
2018-05-31T21:42:40.630Z,7.20
2018-05-31T21:45:08.502Z,7.37
2018-05-31T21:47:36.133Z,6.17
2018-05-31T21:50:04.715Z,6.13
2018-05-31T21:52:32.470Z,5.13
2018-05-31T21:55:00.119Z,10.60
2018-05-31T21:57:27.851Z,6.00
2018-05-31T22:00:01.631Z,5.43
2018-05-31T22:02:30.495Z,6.70
2018-05-31T22:04:59.024Z,5.77
2018-05-31T22:07:27.411Z,5.87
2018-05-31T22:09:55.203Z,8.60
2018-05-31T22:12:23.584Z,8.23
2018-05-31T22:14:54.324Z,5.63
2018-05-31T22:17:22.841Z,10.73
2018-05-31T22:19:51.510Z,6.33
2018-05-31T22:22:21.240Z,7.30
2018-05-31T22:24:51.960Z,7.90
2018-05-31T22:27:23.503Z,10.60
2018-05-31T22:29:54.795Z,11.57
2018-05-31T22:32:25.566Z,8.43
2018-05-31T22:34:53.353Z,8.30
2018-05-31T22:37:22.925Z,12.57
2018-05-31T22:39:51.413Z,11.00
2018-05-31T22:42:20.027Z,10.37
2018-05-31T22:44:48.067Z,10.43
2018-05-31T22:47:16.935Z,12.57
2018-05-31T22:49:44.716Z,12.07
2018-05-31T22:52:14.549Z,9.80
2018-05-31T22:54:44.336Z,8.80
2018-05-31T22:57:12.181Z,8.77
2018-05-31T22:59:39.936Z,8.03
2018-05-31T23:02:07.704Z,10.67
2018-05-31T23:04:35.413Z,10.37
2018-05-31T23:07:03.940Z,10.63
2018-05-31T23:09:33.447Z,16.67
2018-05-31T23:12:01.855Z,19.27
2018-05-31T23:14:31.224Z,15.03
2018-05-31T23:17:00.573Z,63.33
2018-05-31T23:19:30.024Z,44.60
2018-05-31T23:21:57.799Z,44.80
2018-05-31T23:24:26.282Z,40.03
2018-05-31T23:26:55.714Z,40.05
2018-05-31T23:29:23.514Z,39.60
2018-05-31T23:31:51.260Z,38.67
2018-05-31T23:34:19.096Z,35.03
2018-05-31T23:36:46.997Z,35.77
2018-05-31T23:39:15.517Z,42.10
2018-05-31T23:41:43.318Z,33.53
2018-05-31T23:44:11.245Z,38.33
2018-05-31T23:46:39.950Z,37.07
2018-05-31T23:49:09.764Z,37.95
2018-05-31T23:51:37.478Z,53.47
2018-05-31T23:54:05.106Z,49.03
2018-05-31T23:56:34.369Z,45.60
2018-05-31T23:59:03.811Z,46.50
